Terminal Aerodrome Forecast
Issued by NWS Grand Junction, CO

Home | Current Version | Previous Version | Text Only | Print | Product List | Glossary On
Versions: 1 2 3 4 5 6 7 8 9 10 11 12 13 14 15 16 17
000
FTUS45 KGJT 240520
TAFGJT
TAF
KGJT 240520Z 2406/2506 08005KT P6SM BKN250
     FM241000 13005KT P6SM BKN250
     FM241900 29007KT P6SM FEW140 SCT250
     FM250100 08005KT P6SM SCT250=

USA.gov is the U.S. government's official web portal to all federal, state and local government web resources and services.